createdAt,value
2018-12-02T00:00:53.353Z,65.29
2018-12-02T00:03:22.269Z,65.20
2018-12-02T00:05:50.662Z,65.47
2018-12-02T00:08:25.420Z,65.38
2018-12-02T00:10:53.799Z,65.19
2018-12-02T00:13:22.677Z,65.29
2018-12-02T00:15:51.707Z,65.72
2018-12-02T00:18:20.158Z,65.57
2018-12-02T00:20:48.485Z,65.12
2018-12-02T00:23:16.887Z,64.31
2018-12-02T00:25:45.320Z,64.74
2018-12-02T00:28:13.675Z,65.24
2018-12-02T00:30:42.181Z,64.61
2018-12-02T00:33:10.664Z,65.16
2018-12-02T00:35:39.083Z,64.48
2018-12-02T00:38:08.476Z,65.39
2018-12-02T00:40:36.839Z,64.77
2018-12-02T00:43:07.020Z,65.24
2018-12-02T00:45:37.157Z,65.01
2018-12-02T00:48:08.999Z,64.35
2018-12-02T00:50:37.779Z,65.72
2018-12-02T00:53:07.851Z,65.01
2018-12-02T00:55:38.892Z,65.68
2018-12-02T00:58:07.632Z,65.34
2018-12-02T01:00:36.339Z,65.69
2018-12-02T01:03:06.404Z,66.30
2018-12-02T01:05:34.837Z,66.42
2018-12-02T01:08:03.272Z,64.76
2018-12-02T01:10:31.616Z,66.31
2018-12-02T01:13:00.222Z,65.36
2018-12-02T01:15:31.243Z,66.11
2018-12-02T01:17:59.887Z,64.80
2018-12-02T01:20:28.260Z,65.18
2018-12-02T01:22:56.581Z,65.23
2018-12-02T01:25:24.944Z,64.66
2018-12-02T01:27:53.246Z,65.10
2018-12-02T01:30:23.317Z,66.11
2018-12-02T01:32:53.895Z,64.49
2018-12-02T01:35:22.555Z,65.96
2018-12-02T01:37:51.082Z,64.84
2018-12-02T01:40:20.977Z,64.17
2018-12-02T01:42:49.999Z,64.06
2018-12-02T01:45:24.949Z,64.18
2018-12-02T01:47:55.480Z,64.42
2018-12-02T01:50:25.494Z,65.46
2018-12-02T01:52:55.942Z,65.08
2018-12-02T01:55:25.040Z,64.83
2018-12-02T01:57:53.388Z,64.50
2018-12-02T02:00:24.698Z,64.48
2018-12-02T02:02:53.790Z,65.45
2018-12-02T02:05:24.517Z,65.55
2018-12-02T02:07:53.027Z,64.94
2018-12-02T02:10:25.074Z,65.70
2018-12-02T02:12:53.801Z,65.33
2018-12-02T02:15:22.207Z,64.84
2018-12-02T02:17:50.869Z,65.32
2018-12-02T02:20:22.205Z,64.63
2018-12-02T02:22:50.574Z,65.42
2018-12-02T02:25:20.812Z,65.55
2018-12-02T02:27:56.309Z,65.67
2018-12-02T02:30:25.910Z,65.83
2018-12-02T02:32:54.285Z,66.92
2018-12-02T02:35:22.847Z,66.72
2018-12-02T02:37:53.517Z,66.77
2018-12-02T02:40:23.406Z,67.14
2018-12-02T02:42:51.693Z,66.84
2018-12-02T02:45:20.011Z,67.94
2018-12-02T02:47:48.381Z,68.95
2018-12-02T02:50:23.995Z,67.52
2018-12-02T02:52:57.261Z,68.02
2018-12-02T02:55:25.642Z,67.64
2018-12-02T02:57:54.011Z,67.33
2018-12-02T03:00:25.022Z,67.68
2018-12-02T03:02:53.665Z,67.82
2018-12-02T03:05:22.297Z,68.45
2018-12-02T03:07:50.707Z,67.53
2018-12-02T03:10:20.415Z,68.49
2018-12-02T03:12:50.213Z,68.46
2018-12-02T03:15:19.627Z,66.21
2018-12-02T03:17:47.987Z,68.93
2018-12-02T03:20:20.390Z,67.11
2018-12-02T03:22:50.634Z,66.75
2018-12-02T03:25:20.618Z,67.43
2018-12-02T03:27:49.021Z,67.53
2018-12-02T03:30:19.797Z,66.79
2018-12-02T03:32:48.249Z,66.35
2018-12-02T03:35:18.448Z,67.04
2018-12-02T03:37:46.774Z,66.56
2018-12-02T03:40:18.670Z,66.60
2018-12-02T03:42:47.082Z,67.39
2018-12-02T03:45:16.805Z,67.69
2018-12-02T03:47:45.465Z,66.25
2018-12-02T03:50:17.736Z,66.84
2018-12-02T03:52:45.172Z,66.10
2018-12-02T03:55:13.517Z,66.66
2018-12-02T03:57:42.681Z,66.00
2018-12-02T04:00:14.401Z,65.95
2018-12-02T04:02:42.948Z,66.27
2018-12-02T04:05:14.061Z,65.52
2018-12-02T04:07:42.438Z,66.24
2018-12-02T04:10:16.150Z,65.39
2018-12-02T04:12:45.532Z,65.20
2018-12-02T04:15:21.238Z,64.86
2018-12-02T04:17:49.638Z,65.25
2018-12-02T04:20:18.870Z,64.03
2018-12-02T04:22:48.469Z,64.69
2018-12-02T04:25:20.322Z,64.82
2018-12-02T04:27:49.755Z,64.47
2018-12-02T04:30:19.541Z,64.91
2018-12-02T04:32:52.369Z,64.39
2018-12-02T04:35:24.105Z,64.64
2018-12-02T04:37:52.573Z,65.11
2018-12-02T04:40:20.951Z,64.81
2018-12-02T04:42:49.338Z,64.52
2018-12-02T04:45:18.863Z,64.96
2018-12-02T04:47:47.764Z,64.26
2018-12-02T04:50:22.880Z,64.10
2018-12-02T04:52:51.242Z,64.10
2018-12-02T04:55:19.590Z,64.46
2018-12-02T04:57:47.929Z,63.78
2018-12-02T05:00:18.631Z,63.86
2018-12-02T05:02:49.533Z,63.48
2018-12-02T05:05:20.399Z,63.32
2018-12-02T05:07:48.951Z,63.61
2018-12-02T05:10:18.564Z,62.56
2018-12-02T05:12:47.369Z,63.02
2018-12-02T05:15:16.983Z,64.34
2018-12-02T05:17:45.334Z,63.61
2018-12-02T05:20:17.126Z,62.98
2018-12-02T05:22:45.701Z,62.69
2018-12-02T05:25:17.821Z,62.95
2018-12-02T05:27:43.832Z,62.67
2018-12-02T05:30:18.370Z,62.39
2018-12-02T05:32:48.266Z,61.25
2018-12-02T05:35:16.806Z,61.99
2018-12-02T05:37:45.500Z,61.62
2018-12-02T05:40:16.353Z,61.09
2018-12-02T05:42:45.016Z,61.46
2018-12-02T05:45:14.654Z,61.69
2018-12-02T05:47:43.518Z,62.52
2018-12-02T05:50:17.422Z,62.43
2018-12-02T05:52:52.866Z,61.54
2018-12-02T05:55:40.796Z,63.00
2018-12-02T05:58:09.023Z,65.65
2018-12-02T06:00:37.354Z,64.53
2018-12-02T06:03:07.797Z,66.01
2018-12-02T06:05:36.660Z,67.90
2018-12-02T06:08:06.301Z,68.48
2018-12-02T06:10:34.942Z,69.19
2018-12-02T06:13:03.693Z,69.01
2018-12-02T06:15:32.034Z,72.65
2018-12-02T06:18:00.342Z,69.29
2018-12-02T06:20:29.430Z,73.10
2018-12-02T06:22:58.289Z,75.34
2018-12-02T06:25:27.017Z,76.57
2018-12-02T06:27:55.641Z,74.43
2018-12-02T06:30:27.236Z,76.20
2018-12-02T06:33:00.679Z,77.38
2018-12-02T06:35:29.385Z,76.12
2018-12-02T06:37:59.384Z,76.52
2018-12-02T06:40:28.680Z,77.65
2018-12-02T06:42:57.544Z,76.42
2018-12-02T06:45:25.948Z,77.76
2018-12-02T06:47:54.298Z,78.62
2018-12-02T06:50:24.461Z,77.06
2018-12-02T06:52:54.183Z,78.29
2018-12-02T06:55:54.148Z,78.01
2018-12-02T06:58:42.217Z,79.59
2018-12-02T07:03:32.670Z,78.70
2018-12-02T07:06:01.274Z,79.86
2018-12-02T07:08:29.660Z,80.33
2018-12-02T07:10:57.887Z,80.06
2018-12-02T07:13:26.513Z,79.69
2018-12-02T07:15:54.875Z,79.03
2018-12-02T07:18:29.806Z,79.23
2018-12-02T07:21:05.224Z,79.65
2018-12-02T07:23:38.930Z,78.65
2018-12-02T07:26:11.691Z,79.12
2018-12-02T07:28:40.142Z,79.20
2018-12-02T07:31:08.514Z,79.59
2018-12-02T07:33:36.923Z,79.86
2018-12-02T07:36:11.585Z,78.57
2018-12-02T07:40:13.151Z,78.31
2018-12-02T07:42:41.913Z,78.14
2018-12-02T07:45:10.395Z,78.43
2018-12-02T07:47:38.788Z,78.70
2018-12-02T07:50:09.245Z,77.80
2018-12-02T07:52:37.602Z,78.46
2018-12-02T07:55:07.969Z,78.50
2018-12-02T07:57:37.127Z,78.04
2018-12-02T08:00:11.269Z,78.29
2018-12-02T08:02:39.874Z,78.06
2018-12-02T08:05:13.410Z,77.87
2018-12-02T08:07:42.761Z,78.11
2018-12-02T08:10:17.646Z,79.82
2018-12-02T08:12:46.106Z,79.15
2018-12-02T08:15:16.985Z,79.67
2018-12-02T08:17:45.756Z,80.33
2018-12-02T08:20:17.068Z,79.85
2018-12-02T08:22:51.262Z,79.80
2018-12-02T08:25:17.937Z,79.79
2018-12-02T08:27:46.953Z,80.32
2018-12-02T08:30:18.234Z,80.38
2018-12-02T08:32:46.629Z,80.72
2018-12-02T08:35:16.463Z,80.83
2018-12-02T08:37:47.708Z,81.05
2018-12-02T08:40:16.323Z,80.92
2018-12-02T08:42:44.778Z,81.47
2018-12-02T08:45:16.987Z,81.16
2018-12-02T08:47:46.071Z,81.84
2018-12-02T08:50:19.577Z,83.09
2018-12-02T08:52:49.703Z,83.34
2018-12-02T08:55:20.315Z,84.26
2018-12-02T08:57:55.676Z,84.25
2018-12-02T09:00:25.233Z,84.48
2018-12-02T09:02:55.739Z,85.51
2018-12-02T09:05:24.184Z,85.79
2018-12-02T09:07:53.799Z,85.71
2018-12-02T09:10:23.231Z,86.19
2018-12-02T09:12:54.053Z,86.37
2018-12-02T09:15:22.495Z,87.24
2018-12-02T09:17:51.146Z,86.58
2018-12-02T09:20:28.234Z,86.60
2018-12-02T09:22:56.548Z,86.40
2018-12-02T09:25:25.196Z,86.66
2018-12-02T09:28:01.177Z,86.11
2018-12-02T09:30:31.214Z,86.06
2018-12-02T09:32:59.585Z,85.88
2018-12-02T09:35:27.964Z,86.03
2018-12-02T09:37:56.660Z,86.11
2018-12-02T09:40:24.997Z,85.89
2018-12-02T09:42:54.148Z,86.22
2018-12-02T09:45:27.907Z,86.95
2018-12-02T09:47:58.270Z,86.82
2018-12-02T09:50:27.569Z,86.88
2018-12-02T09:52:56.251Z,86.50
2018-12-02T09:55:34.521Z,86.65
2018-12-02T09:58:02.908Z,86.57
2018-12-02T10:00:34.166Z,86.43
2018-12-02T10:03:00.349Z,85.91
2018-12-02T10:05:28.855Z,86.53
2018-12-02T10:07:57.247Z,86.44
2018-12-02T10:10:25.666Z,86.60
2018-12-02T10:12:57.940Z,86.33
2018-12-02T10:15:26.658Z,86.25
2018-12-02T10:17:55.029Z,86.71
2018-12-02T10:20:23.434Z,86.51
2018-12-02T10:22:51.845Z,86.13
2018-12-02T10:25:20.630Z,86.16
2018-12-02T10:27:49.613Z,86.12
2018-12-02T10:30:19.168Z,86.04
2018-12-02T10:32:47.814Z,85.19
2018-12-02T10:35:16.563Z,85.01
2018-12-02T10:37:45.223Z,85.14
2018-12-02T10:40:18.177Z,85.66
2018-12-02T10:42:47.105Z,86.32
2018-12-02T10:45:18.993Z,86.66
2018-12-02T10:47:47.743Z,86.23
2018-12-02T10:50:33.452Z,86.27
2018-12-02T10:53:08.418Z,85.88
2018-12-02T10:55:45.020Z,85.15
2018-12-02T10:58:15.756Z,85.94
2018-12-02T11:00:49.871Z,85.34
2018-12-02T11:03:18.527Z,85.81
2018-12-02T11:05:47.070Z,85.23
2018-12-02T11:08:15.833Z,84.65
2018-12-02T11:10:44.563Z,84.76
2018-12-02T11:13:12.959Z,84.04
2018-12-02T11:15:44.103Z,83.00
2018-12-02T11:18:13.998Z,82.02
2018-12-02T11:20:43.310Z,81.60
2018-12-02T11:23:11.927Z,80.69
2018-12-02T11:25:40.244Z,80.13
2018-12-02T11:28:09.476Z,79.38
2018-12-02T11:30:39.057Z,79.56
2018-12-02T11:33:08.192Z,78.81
2018-12-02T11:35:36.809Z,78.61
2018-12-02T11:38:06.664Z,78.47
2018-12-02T11:40:35.800Z,77.43
2018-12-02T11:43:04.489Z,76.95
2018-12-02T11:45:36.877Z,76.01
2018-12-02T11:48:06.883Z,75.62
2018-12-02T11:50:35.678Z,74.76
2018-12-02T11:53:04.427Z,74.34
2018-12-02T11:55:32.842Z,73.84
2018-12-02T11:58:01.488Z,74.27
2018-12-02T12:00:32.101Z,73.69
2018-12-02T12:03:00.695Z,74.22
2018-12-02T12:05:29.399Z,73.39
2018-12-02T12:07:57.786Z,72.75
2018-12-02T12:10:27.584Z,72.17
2018-12-02T12:12:59.372Z,70.24
2018-12-02T12:15:29.196Z,70.41
2018-12-02T12:17:58.727Z,71.46
2018-12-02T12:20:29.979Z,70.58
2018-12-02T12:22:58.267Z,72.14
2018-12-02T12:25:27.025Z,71.20
2018-12-02T12:27:56.841Z,71.74
2018-12-02T12:30:27.976Z,71.62
2018-12-02T12:32:56.409Z,71.25
2018-12-02T12:35:25.684Z,70.56
2018-12-02T12:37:54.603Z,70.76
2018-12-02T12:40:34.148Z,70.95
2018-12-02T12:43:35.465Z,71.58
2018-12-02T12:46:04.046Z,72.33
2018-12-02T12:48:32.414Z,73.03
2018-12-02T12:51:01.210Z,72.23
2018-12-02T12:53:29.587Z,72.08
2018-12-02T12:55:57.997Z,72.35
2018-12-02T12:58:26.450Z,71.33
2018-12-02T13:00:54.826Z,69.73
2018-12-02T13:03:23.229Z,69.32
2018-12-02T13:05:51.759Z,68.91
2018-12-02T13:08:20.298Z,66.33
2018-12-02T13:10:48.987Z,61.80
2018-12-02T13:13:17.673Z,63.09
2018-12-02T13:15:46.078Z,61.45
2018-12-02T13:18:14.413Z,61.47
2018-12-02T13:20:50.721Z,61.98
2018-12-02T13:23:19.376Z,64.39
2018-12-02T13:25:47.778Z,68.66
2018-12-02T13:28:16.352Z,71.18
2018-12-02T13:30:45.042Z,72.49
2018-12-02T13:33:13.403Z,73.44
2018-12-02T13:35:41.927Z,74.87
2018-12-02T13:38:10.723Z,75.23
2018-12-02T13:40:41.003Z,75.47
2018-12-02T13:43:14.780Z,75.16
2018-12-02T13:45:43.934Z,75.14
2018-12-02T13:48:12.287Z,75.07
2018-12-02T13:50:40.906Z,74.55
2018-12-02T13:53:09.234Z,74.11
2018-12-02T13:55:38.335Z,74.41
2018-12-02T13:58:07.568Z,74.51
2018-12-02T14:00:38.137Z,74.79
2018-12-02T14:03:12.559Z,70.95
2018-12-02T14:05:45.721Z,70.36
2018-12-02T14:08:14.225Z,70.18
2018-12-02T14:10:43.182Z,71.25
2018-12-02T14:13:18.092Z,71.66
2018-12-02T14:16:00.943Z,72.32
2018-12-02T14:18:38.338Z,73.75
2018-12-02T14:21:07.129Z,74.02
2018-12-02T14:23:37.645Z,75.08
2018-12-02T14:26:14.770Z,74.73
2018-12-02T14:28:53.990Z,74.16
2018-12-02T14:31:23.069Z,72.52
2018-12-02T14:33:51.480Z,73.07
2018-12-02T14:36:19.804Z,73.36
2018-12-02T14:38:48.140Z,74.08
2018-12-02T14:41:16.646Z,75.06
2018-12-02T14:43:45.024Z,75.34
2018-12-02T14:46:13.877Z,75.41
2018-12-02T14:48:42.570Z,76.15
2018-12-02T14:51:11.001Z,76.94
2018-12-02T14:53:39.650Z,76.83
2018-12-02T14:56:08.135Z,77.10
2018-12-02T14:58:36.482Z,76.52
2018-12-02T15:01:05.617Z,77.18
2018-12-02T15:03:35.031Z,77.10
2018-12-02T15:06:03.415Z,77.35
2018-12-02T15:08:31.858Z,77.34
2018-12-02T15:11:00.233Z,77.59
2018-12-02T15:13:28.906Z,77.60
2018-12-02T15:15:57.938Z,78.28
2018-12-02T15:18:26.333Z,78.74
2018-12-02T15:20:54.755Z,79.11
2018-12-02T15:23:23.444Z,79.74
2018-12-02T15:25:52.132Z,79.94
2018-12-02T15:28:20.533Z,80.00
2018-12-02T15:30:49.337Z,80.64
2018-12-02T15:33:17.650Z,80.54
2018-12-02T15:35:46.199Z,81.08
2018-12-02T15:38:15.491Z,80.89
2018-12-02T15:40:44.796Z,80.34
2018-12-02T15:43:13.238Z,81.25
2018-12-02T15:45:41.581Z,80.85
2018-12-02T15:48:09.958Z,81.18
2018-12-02T15:50:38.314Z,81.06
2018-12-02T15:53:06.683Z,81.07
2018-12-02T15:55:36.336Z,81.64
2018-12-02T15:58:09.597Z,81.48
2018-12-02T16:00:40.983Z,81.69
2018-12-02T16:03:09.404Z,81.34
2018-12-02T16:05:37.798Z,81.54
2018-12-02T16:08:07.707Z,81.89
2018-12-02T16:10:36.850Z,81.67
2018-12-02T16:13:08.085Z,82.03
2018-12-02T16:15:36.954Z,82.20
2018-12-02T16:18:07.627Z,82.59
2018-12-02T16:20:44.337Z,81.94
2018-12-02T16:23:14.466Z,82.40
2018-12-02T16:25:42.885Z,82.60
2018-12-02T16:28:11.358Z,82.90
2018-12-02T16:30:40.138Z,83.18
2018-12-02T16:33:08.518Z,83.48
2018-12-02T16:35:37.400Z,83.10
2018-12-02T16:38:09.103Z,83.85
2018-12-02T16:40:37.830Z,83.32
2018-12-02T16:43:07.585Z,83.66
2018-12-02T16:45:36.189Z,83.73
2018-12-02T16:48:06.730Z,83.84
2018-12-02T16:50:37.415Z,84.15
2018-12-02T16:53:10.344Z,84.39
2018-12-02T16:55:51.888Z,84.64
2018-12-02T16:58:32.176Z,84.48
2018-12-02T17:01:10.884Z,84.46
2018-12-02T17:03:39.590Z,84.20
2018-12-02T17:06:11.042Z,84.56
2018-12-02T17:08:39.501Z,84.76
2018-12-02T17:11:08.220Z,84.57
2018-12-02T17:13:37.300Z,84.64
2018-12-02T17:16:06.366Z,84.51
2018-12-02T17:18:35.415Z,84.51
2018-12-02T17:21:03.810Z,84.20
2018-12-02T17:23:32.206Z,83.74
2018-12-02T17:26:01.681Z,84.19
2018-12-02T17:28:30.147Z,83.70
2018-12-02T17:31:08.303Z,83.52
2018-12-02T17:33:37.243Z,84.05
2018-12-02T17:36:06.306Z,83.87
2018-12-02T17:38:34.730Z,83.80
2018-12-02T17:41:04.164Z,83.94
2018-12-02T17:43:32.606Z,83.66
2018-12-02T17:46:01.094Z,84.08
2018-12-02T17:48:29.418Z,83.80
2018-12-02T17:50:57.750Z,84.09
2018-12-02T17:53:26.150Z,83.77
2018-12-02T17:56:01.595Z,83.91
2018-12-02T17:58:30.022Z,83.41
2018-12-02T18:00:59.286Z,82.86
2018-12-02T18:03:30.626Z,83.32
2018-12-02T18:05:59.019Z,83.26
2018-12-02T18:08:27.785Z,83.23
2018-12-02T18:10:56.148Z,83.26
2018-12-02T18:13:25.054Z,82.97
2018-12-02T18:15:53.823Z,83.30
2018-12-02T18:18:23.112Z,83.68
2018-12-02T18:20:51.836Z,83.11
2018-12-02T18:23:21.225Z,83.66
2018-12-02T18:25:49.655Z,84.32
2018-12-02T18:28:18.212Z,85.62
2018-12-02T18:30:47.066Z,85.06
2018-12-02T18:33:16.478Z,84.87
2018-12-02T18:36:01.982Z,85.23
2018-12-02T18:38:34.491Z,84.63
2018-12-02T18:41:12.498Z,84.63
2018-12-02T18:43:40.837Z,84.76
2018-12-02T18:46:10.662Z,85.76
2018-12-02T18:48:39.162Z,86.72
2018-12-02T18:51:07.842Z,87.87
2018-12-02T18:53:36.626Z,88.12
2018-12-02T18:56:05.677Z,88.39
2018-12-02T18:58:33.971Z,88.42
2018-12-02T19:01:03.356Z,88.20
2018-12-02T19:03:31.791Z,88.37
2018-12-02T19:06:00.362Z,88.23
2018-12-02T19:08:29.326Z,87.68
2018-12-02T19:10:59.270Z,87.58
2018-12-02T19:13:27.895Z,87.04
2018-12-02T19:15:56.255Z,87.06
2018-12-02T19:18:25.043Z,86.83
2018-12-02T19:20:56.631Z,86.35
2018-12-02T19:23:31.489Z,86.46
2018-12-02T19:25:59.842Z,86.48
2018-12-02T19:28:28.274Z,86.53
2018-12-02T19:30:56.630Z,86.15
2018-12-02T19:33:26.581Z,86.99
2018-12-02T19:36:06.815Z,86.20
2018-12-02T19:38:35.777Z,86.86
2018-12-02T19:41:05.012Z,86.74
2018-12-02T19:43:33.429Z,86.13
2018-12-02T19:46:01.692Z,86.32
2018-12-02T19:48:30.123Z,86.36
2018-12-02T19:50:59.172Z,86.02
2018-12-02T19:53:28.176Z,86.41
2018-12-02T19:55:56.867Z,86.54
2018-12-02T19:58:26.101Z,86.34
2018-12-02T20:00:54.499Z,86.38
2018-12-02T20:03:22.881Z,86.15
2018-12-02T20:05:51.691Z,86.84
2018-12-02T20:08:21.033Z,86.95
2018-12-02T20:10:52.751Z,86.76
2018-12-02T20:13:22.427Z,87.18
2018-12-02T20:15:58.367Z,87.38
2018-12-02T20:18:27.274Z,87.36
2018-12-02T20:20:58.374Z,87.52
2018-12-02T20:23:33.739Z,87.75
2018-12-02T20:26:03.714Z,87.62
2018-12-02T20:28:40.620Z,87.62
2018-12-02T20:31:12.923Z,88.14
2018-12-02T20:33:41.801Z,88.50
2018-12-02T20:36:10.238Z,89.11
2018-12-02T20:38:38.501Z,89.12
2018-12-02T20:41:07.418Z,88.66
2018-12-02T20:43:35.835Z,89.94
2018-12-02T20:46:04.458Z,89.74
2018-12-02T20:48:33.025Z,89.28
2018-12-02T20:51:01.633Z,88.72
2018-12-02T20:53:30.014Z,89.38
2018-12-02T20:55:58.399Z,89.37
2018-12-02T20:58:27.324Z,89.38
2018-12-02T21:00:55.984Z,89.34
2018-12-02T21:03:29.705Z,88.94
2018-12-02T21:06:11.031Z,89.07
2018-12-02T21:08:39.675Z,88.97
2018-12-02T21:11:08.118Z,88.93
2018-12-02T21:13:36.501Z,88.86
2018-12-02T21:16:06.604Z,89.03
2018-12-02T21:18:34.997Z,89.67
2018-12-02T21:21:03.397Z,89.58
2018-12-02T21:23:31.765Z,90.01
2018-12-02T21:26:02.037Z,89.47
2018-12-02T21:28:30.976Z,88.69
2018-12-02T21:31:00.302Z,88.89
2018-12-02T21:33:29.669Z,89.70
2018-12-02T21:35:58.266Z,88.59
2018-12-02T21:38:27.048Z,87.97
2018-12-02T21:40:55.856Z,88.12
2018-12-02T21:43:25.076Z,88.76
2018-12-02T21:45:53.535Z,88.02
2018-12-02T21:48:22.703Z,88.13
2018-12-02T21:50:54.831Z,87.82
2018-12-02T21:53:24.842Z,88.45
2018-12-02T21:55:54.165Z,87.72
2018-12-02T21:58:22.996Z,87.22
2018-12-02T22:00:57.498Z,87.50
2018-12-02T22:03:27.339Z,87.52
2018-12-02T22:05:56.205Z,86.79
2018-12-02T22:08:25.550Z,86.38
2018-12-02T22:10:55.251Z,87.36
2018-12-02T22:13:24.498Z,86.92
2018-12-02T22:15:53.805Z,87.17
2018-12-02T22:18:23.419Z,87.41
2018-12-02T22:20:51.991Z,87.08
2018-12-02T22:23:20.860Z,86.90
2018-12-02T22:25:49.543Z,87.04
2018-12-02T22:28:19.713Z,86.15
2018-12-02T22:30:48.286Z,86.27
2018-12-02T22:33:17.130Z,85.87
2018-12-02T22:35:45.789Z,85.95
2018-12-02T22:38:15.253Z,86.17
2018-12-02T22:40:43.969Z,85.82
2018-12-02T22:43:12.359Z,85.92
2018-12-02T22:45:40.900Z,85.42
2018-12-02T22:48:09.380Z,85.08
2018-12-02T22:50:37.710Z,85.07
2018-12-02T22:53:06.751Z,85.36
2018-12-02T22:55:35.105Z,85.17
2018-12-02T22:58:03.624Z,84.35
2018-12-02T23:00:38.270Z,84.60
2018-12-02T23:03:13.722Z,84.67
2018-12-02T23:05:44.089Z,85.19
2018-12-02T23:08:13.142Z,85.00
2018-12-02T23:10:44.353Z,84.89
2018-12-02T23:13:13.339Z,84.53
2018-12-02T23:15:43.397Z,83.89
2018-12-02T23:18:13.355Z,84.14
2018-12-02T23:20:41.936Z,83.65
2018-12-02T23:23:17.167Z,83.81
2018-12-02T23:25:45.577Z,83.49
2018-12-02T23:28:14.148Z,83.97
2018-12-02T23:30:43.850Z,82.95
2018-12-02T23:33:13.443Z,83.18
2018-12-02T23:35:42.901Z,83.45
2018-12-02T23:38:12.150Z,83.25
2018-12-02T23:40:41.355Z,83.33
2018-12-02T23:43:10.849Z,82.76
2018-12-02T23:45:39.376Z,82.89
2018-12-02T23:48:08.190Z,82.94
2018-12-02T23:50:36.699Z,82.90
2018-12-02T23:53:06.563Z,82.74
2018-12-02T23:55:36.372Z,83.61
2018-12-02T23:58:05.497Z,83.60
